Time;durP1;ratioP1;P1;durP2;ratioP2;P2;SDS_P1;SDS_P2;PMS_P1;PMS_P2;Temp;Humidity;BMP_temperature;BMP_pressure;BME280_temperature;BME280_humidity;BME280_pressure;Samples;Min_cycle;Max_cycle;Signal;HPM_P1;HPM_P2
2022/07/10 00:01:27;;;;;;;5.22;0.82;;;13.60;1.00;;;;;;4972003;28;20046;-74
2022/07/10 00:03:54;;;;;;;4.30;0.98;;;13.80;1.00;;;;;;4972058;28;20041;-74
2022/07/10 00:06:20;;;;;;;5.85;1.02;;;13.80;1.00;;;;;;4972407;28;20023;-74
2022/07/10 00:08:46;;;;;;;3.90;1.00;;;13.90;1.00;;;;;;4975281;28;20081;-74
2022/07/10 00:11:12;;;;;;;5.78;0.82;;;14.00;1.00;;;;;;4975694;28;20663;-74
2022/07/10 00:13:37;;;;;;;8.30;0.93;;;14.00;1.00;;;;;;4975453;28;20038;-74
2022/07/10 00:16:03;;;;;;;5.55;1.02;;;14.00;1.00;;;;;;4975507;28;20026;-75
2022/07/10 00:18:29;;;;;;;6.13;1.10;;;14.00;1.00;;;;;;4975364;28;20034;-75
2022/07/10 00:20:54;;;;;;;4.40;0.90;;;13.90;1.00;;;;;;4975541;28;20047;-74
2022/07/10 00:23:20;;;;;;;7.95;0.95;;;13.80;1.00;;;;;;4975282;28;20023;-74
2022/07/10 00:25:46;;;;;;;10.65;1.58;;;13.60;1.00;;;;;;4975283;28;20015;-75
2022/07/10 00:28:11;;;;;;;4.60;0.85;;;13.50;1.00;;;;;;4975296;28;20027;-75
2022/07/10 00:30:37;;;;;;;3.13;0.63;;;13.50;1.00;;;;;;4975073;28;20023;-76
2022/07/10 00:33:03;;;;;;;4.25;0.98;;;13.50;1.00;;;;;;4975585;28;20023;-75
2022/07/10 00:35:29;;;;;;;3.95;0.90;;;13.50;1.00;;;;;;4975021;28;20129;-75
2022/07/10 00:37:56;;;;;;;6.60;1.23;;;13.50;1.00;;;;;;4974996;28;20601;-75
2022/07/10 00:40:23;;;;;;;5.22;1.23;;;13.40;1.00;;;;;;4975233;28;20049;-75
2022/07/10 00:42:49;;;;;;;4.90;0.93;;;13.60;1.00;;;;;;4974985;28;20027;-75
2022/07/10 00:45:15;;;;;;;4.30;0.82;;;13.80;1.00;;;;;;4974973;28;20459;-75
2022/07/10 00:47:40;;;;;;;6.05;0.95;;;13.90;1.00;;;;;;4974846;28;20046;-75
2022/07/10 00:50:06;;;;;;;4.30;0.80;;;13.90;1.00;;;;;;4974773;28;20030;-75
2022/07/10 00:52:35;;;;;;;4.40;0.50;;;14.00;1.00;;;;;;4975271;28;20022;-75
2022/07/10 00:55:01;;;;;;;3.33;1.00;;;14.10;1.00;;;;;;4974759;28;20455;-75
2022/07/10 00:57:27;;;;;;;5.32;0.93;;;14.20;1.00;;;;;;4974792;28;20041;-75
2022/07/10 00:59:54;;;;;;;5.97;0.90;;;14.20;1.00;;;;;;4974545;28;20019;-75
2022/07/10 01:02:20;;;;;;;3.33;0.55;;;14.30;99.90;;;;;;4974587;28;20490;-75
2022/07/10 01:04:45;;;;;;;2.65;0.50;;;14.30;1.00;;;;;;4974325;28;20026;-75
2022/07/10 01:07:11;;;;;;;5.18;0.80;;;14.20;1.00;;;;;;4974493;28;20039;-75
2022/07/10 01:09:37;;;;;;;3.35;0.50;;;14.30;1.00;;;;;;4974473;28;20097;-75
2022/07/10 01:12:03;;;;;;;3.08;0.65;;;14.30;99.90;;;;;;4974486;28;20019;-75
2022/07/10 01:14:30;;;;;;;5.72;0.70;;;14.30;99.90;;;;;;4974319;28;20027;-75
2022/07/10 01:16:57;;;;;;;2.72;0.90;;;14.20;99.90;;;;;;4974449;28;20069;-75
2022/07/10 01:19:22;;;;;;;5.43;1.75;;;14.20;99.90;;;;;;4973526;28;20043;-76
2022/07/10 01:21:48;;;;;;;2.78;0.77;;;14.10;99.90;;;;;;4974285;28;20099;-75
2022/07/10 01:24:14;;;;;;;8.57;1.08;;;14.00;99.90;;;;;;4974233;28;20027;-75
2022/07/10 01:26:42;;;;;;;5.55;1.10;;;13.90;99.90;;;;;;4974197;28;20030;-75
2022/07/10 01:29:09;;;;;;;3.75;0.60;;;13.90;99.90;;;;;;4974110;28;20077;-75
2022/07/10 01:31:35;;;;;;;4.28;0.80;;;13.80;1.00;;;;;;4974259;28;20027;-75
2022/07/10 01:34:04;;;;;;;5.32;0.65;;;13.80;99.90;;;;;;4973489;28;20050;-75
2022/07/10 01:36:30;;;;;;;4.40;0.52;;;13.80;99.90;;;;;;4974145;28;20034;-75
2022/07/10 01:38:56;;;;;;;2.13;0.40;;;13.90;99.90;;;;;;4973831;28;20034;-75
2022/07/10 01:41:23;;;;;;;2.90;0.40;;;13.90;99.90;;;;;;4974005;28;20037;-75
2022/07/10 01:43:49;;;;;;;4.60;0.73;;;13.90;99.90;;;;;;4973944;28;20478;-75
2022/07/10 01:46:16;;;;;;;6.10;0.80;;;13.90;99.90;;;;;;4973745;28;20403;-75
2022/07/10 01:48:42;;;;;;;3.42;0.43;;;14.00;99.90;;;;;;4973920;28;20011;-75
2022/07/10 01:51:10;;;;;;;6.07;0.60;;;13.90;99.90;;;;;;4973795;28;20098;-75
2022/07/10 01:53:36;;;;;;;7.68;1.20;;;14.00;99.90;;;;;;4973713;28;20027;-75
2022/07/10 01:56:05;;;;;;;4.82;1.02;;;14.00;99.90;;;;;;4973426;28;20015;-75
2022/07/10 01:58:31;;;;;;;2.92;0.98;;;14.00;99.90;;;;;;4973520;28;20027;-76
2022/07/10 02:00:56;;;;;;;2.78;0.60;;;14.00;99.90;;;;;;4973324;28;20042;-75
2022/07/10 02:06:06;;;;;;;3.63;0.70;;;14.00;99.90;;;;;;4973658;28;20053;-75
2022/07/10 02:08:32;;;;;;;2.33;0.75;;;14.10;99.90;;;;;;4973586;28;20370;-75
2022/07/10 02:10:57;;;;;;;3.35;0.82;;;14.10;99.90;;;;;;4973499;28;20027;-75
2022/07/10 02:13:25;;;;;;;6.65;0.80;;;14.10;99.90;;;;;;4973451;28;20510;-75
2022/07/10 02:15:51;;;;;;;5.22;0.93;;;13.90;99.90;;;;;;4973525;28;20098;-75
2022/07/10 02:18:16;;;;;;;4.57;0.90;;;13.80;1.00;;;;;;4973064;28;20169;-75
2022/07/10 02:20:42;;;;;;;7.63;0.90;;;13.70;1.00;;;;;;4973406;28;20094;-75
2022/07/10 02:23:07;;;;;;;7.75;1.20;;;13.60;1.00;;;;;;4972949;28;20042;-75
2022/07/10 02:25:33;;;;;;;5.60;0.80;;;13.50;1.00;;;;;;4973049;28;20030;-75
2022/07/10 02:27:59;;;;;;;3.85;0.80;;;13.40;1.00;;;;;;4972891;28;20503;-75
2022/07/10 02:30:25;;;;;;;10.30;1.00;;;13.30;1.00;;;;;;4972766;28;20086;-75
2022/07/10 02:32:51;;;;;;;2.30;0.60;;;13.40;1.00;;;;;;4973013;28;20105;-75
2022/07/10 02:35:16;;;;;;;7.13;0.85;;;13.50;1.00;;;;;;4972380;28;20051;-75
2022/07/10 02:37:42;;;;;;;5.57;0.82;;;13.70;1.00;;;;;;4973042;28;20018;-75
2022/07/10 02:40:08;;;;;;;7.13;1.33;;;13.60;1.00;;;;;;4972961;28;20109;-75
2022/07/10 02:42:33;;;;;;;3.95;0.82;;;13.60;1.00;;;;;;4972864;28;20026;-75
2022/07/10 02:44:59;;;;;;;0.93;0.60;;;13.70;1.00;;;;;;4972686;28;20027;-75
2022/07/10 02:47:25;;;;;;;4.75;0.88;;;13.80;1.00;;;;;;4972610;28;20035;-75
2022/07/10 02:49:50;;;;;;;6.32;0.70;;;14.10;1.00;;;;;;4972710;28;20074;-75
2022/07/10 02:52:16;;;;;;;4.47;1.10;;;14.10;1.00;;;;;;4972749;28;20026;-75
2022/07/10 02:54:41;;;;;;;4.40;0.90;;;14.20;1.00;;;;;;4972726;28;20033;-75
2022/07/10 02:57:07;;;;;;;4.53;0.80;;;14.20;1.00;;;;;;4972691;28;20015;-75
2022/07/10 02:59:33;;;;;;;2.42;0.75;;;14.10;1.00;;;;;;4972567;28;20030;-75
2022/07/10 03:01:58;;;;;;;4.97;0.93;;;14.10;1.00;;;;;;4972617;28;20471;-75
2022/07/10 03:04:24;;;;;;;2.58;0.73;;;14.00;1.00;;;;;;4972787;28;20386;-75
2022/07/10 03:06:50;;;;;;;6.60;1.30;;;14.00;1.00;;;;;;4972454;28;20540;-75
2022/07/10 03:09:15;;;;;;;3.72;0.75;;;14.00;1.00;;;;;;4972475;28;20023;-74
2022/07/10 03:11:41;;;;;;;3.25;0.95;;;14.00;1.00;;;;;;4972462;28;20019;-75
2022/07/10 03:14:06;;;;;;;3.20;0.93;;;14.00;1.00;;;;;;4972546;28;20023;-75
2022/07/10 03:16:32;;;;;;;5.05;1.27;;;14.00;1.00;;;;;;4972687;28;20038;-75
2022/07/10 03:18:58;;;;;;;3.67;1.00;;;14.00;1.00;;;;;;4972483;28;20035;-75
2022/07/10 03:21:23;;;;;;;4.07;1.50;;;14.00;1.00;;;;;;4972450;28;20019;-75
2022/07/10 03:23:50;;;;;;;4.63;1.35;;;14.00;1.00;;;;;;4972420;28;20019;-75
2022/07/10 03:26:15;;;;;;;5.78;1.35;;;14.10;1.00;;;;;;4972559;28;20045;-75
2022/07/10 03:28:41;;;;;;;6.90;1.58;;;14.10;1.00;;;;;;4972394;28;20458;-75
2022/07/10 03:31:07;;;;;;;3.38;0.90;;;14.10;1.00;;;;;;4972517;28;20430;-75
2022/07/10 03:33:33;;;;;;;3.25;1.15;;;14.10;7.90;;;;;;4972152;28;20019;-75
2022/07/10 03:36:01;;;;;;;4.68;1.05;;;14.00;64.90;;;;;;4972100;28;20105;-75
2022/07/10 03:38:27;;;;;;;4.95;1.50;;;14.00;53.10;;;;;;4972740;28;20446;-75
2022/07/10 03:40:52;;;;;;;6.55;1.20;;;14.00;66.80;;;;;;4972751;28;20027;-75
2022/07/10 03:43:18;;;;;;;2.83;0.95;;;14.00;80.00;;;;;;4975605;28;20023;-75
2022/07/10 03:45:43;;;;;;;8.75;1.50;;;13.90;89.50;;;;;;4976378;28;20031;-76
2022/07/10 03:48:09;;;;;;;10.32;1.40;;;14.00;93.50;;;;;;4976157;28;20039;-76
2022/07/10 03:50:34;;;;;;;4.60;1.38;;;13.90;98.30;;;;;;4976404;28;20054;-76
2022/07/10 03:53:00;;;;;;;5.13;1.30;;;13.90;99.90;;;;;;4976042;28;20023;-76
2022/07/10 03:55:26;;;;;;;9.48;2.13;;;14.00;99.90;;;;;;4976027;28;20506;-75
2022/07/10 03:57:54;;;;;;;8.18;1.85;;;13.90;99.90;;;;;;4975665;28;20094;-75
2022/07/10 04:00:24;;;;;;;4.20;1.20;;;14.00;99.90;;;;;;4975919;28;20030;-76
2022/07/10 04:03:03;;;;;;;6.95;1.52;;;14.00;99.90;;;;;;4975587;28;20031;-75
2022/07/10 04:05:29;;;;;;;5.88;1.58;;;14.00;99.90;;;;;;4975946;28;20037;-76
2022/07/10 04:07:59;;;;;;;7.72;1.85;;;14.00;99.90;;;;;;4975472;28;20062;-75
2022/07/10 04:10:28;;;;;;;6.17;1.87;;;14.10;99.90;;;;;;4975752;28;20025;-75
2022/07/10 04:12:55;;;;;;;6.03;1.73;;;14.10;99.90;;;;;;4976024;28;20026;-75
2022/07/10 04:15:21;;;;;;;4.53;1.83;;;14.10;99.90;;;;;;4975649;28;20062;-76
2022/07/10 04:17:50;;;;;;;5.43;1.77;;;14.10;99.90;;;;;;4975553;28;20062;-75
2022/07/10 04:20:17;;;;;;;5.65;1.80;;;14.20;99.90;;;;;;4975381;28;20041;-75
2022/07/10 04:22:42;;;;;;;6.65;2.05;;;14.20;99.90;;;;;;4975579;28;20027;-75
2022/07/10 04:25:09;;;;;;;6.95;1.50;;;14.20;99.90;;;;;;4975289;28;20615;-75
2022/07/10 04:27:35;;;;;;;6.20;1.50;;;14.30;99.90;;;;;;4975363;28;20034;-75
2022/07/10 04:30:02;;;;;;;8.13;1.90;;;14.30;99.90;;;;;;4975544;28;20086;-76
2022/07/10 04:32:27;;;;;;;5.10;1.30;;;14.40;99.90;;;;;;4975596;28;20030;-75
2022/07/10 04:34:54;;;;;;;7.13;1.80;;;14.40;99.90;;;;;;4974834;28;20047;-76
2022/07/10 04:37:19;;;;;;;5.00;1.52;;;14.50;99.90;;;;;;4975121;28;20118;-75
2022/07/10 04:39:45;;;;;;;6.25;1.27;;;14.60;99.90;;;;;;4975385;28;20106;-76
2022/07/10 04:42:10;;;;;;;4.30;1.60;;;14.60;96.90;;;;;;4975223;28;20050;-76
2022/07/10 04:44:37;;;;;;;3.28;1.60;;;14.70;97.20;;;;;;4974686;28;20026;-75
2022/07/10 04:47:03;;;;;;;4.65;1.38;;;14.90;91.40;;;;;;4974895;28;20027;-76
2022/07/10 04:49:29;;;;;;;2.47;0.75;;;15.00;84.50;;;;;;4974594;28;20027;-76
2022/07/10 04:51:56;;;;;;;3.50;1.40;;;15.00;65.00;;;;;;4974587;28;20035;-76
2022/07/10 04:54:21;;;;;;;9.02;1.77;;;15.10;64.70;;;;;;4973522;28;20027;-76
2022/07/10 04:56:47;;;;;;;3.85;1.70;;;15.10;70.50;;;;;;4974879;28;20110;-76
2022/07/10 04:59:13;;;;;;;4.47;1.40;;;15.10;61.90;;;;;;4974499;28;20026;-76
2022/07/10 05:01:38;;;;;;;4.05;1.10;;;15.00;66.10;;;;;;4974204;28;20455;-76
2022/07/10 05:04:04;;;;;;;6.75;1.40;;;15.10;58.40;;;;;;4974448;28;20031;-76
2022/07/10 05:06:30;;;;;;;3.38;1.48;;;15.10;41.00;;;;;;4974193;28;20442;-76
2022/07/10 05:08:56;;;;;;;5.03;1.40;;;15.20;37.70;;;;;;4974415;28;20106;-76
2022/07/10 05:11:22;;;;;;;4.93;0.98;;;15.40;21.70;;;;;;4974544;28;20590;-76
2022/07/10 05:13:48;;;;;;;3.88;0.80;;;15.30;7.80;;;;;;4974222;28;20031;-76
2022/07/10 05:16:15;;;;;;;0.88;0.88;;;15.60;1.00;;;;;;4974059;28;20034;-76
2022/07/10 05:18:41;;;;;;;3.85;0.52;;;15.80;1.00;;;;;;4955084;29;20075;-76
2022/07/10 05:21:07;;;;;;;5.25;1.30;;;15.60;1.00;;;;;;4955011;28;20375;-76
2022/07/10 05:23:33;;;;;;;1.75;0.75;;;15.50;1.00;;;;;;4954939;28;20042;-76
2022/07/10 05:25:59;;;;;;;2.80;0.55;;;15.40;1.00;;;;;;4954755;28;20027;-76
2022/07/10 05:28:24;;;;;;;1.67;0.77;;;15.30;1.00;;;;;;4959472;28;20019;-76
2022/07/10 05:30:50;;;;;;;3.75;1.08;;;15.40;1.50;;;;;;4974383;28;20471;-76
2022/07/10 05:33:16;;;;;;;2.95;0.85;;;15.40;1.00;;;;;;4973949;28;20027;-76
2022/07/10 05:35:41;;;;;;;2.40;0.90;;;15.40;1.00;;;;;;4973892;28;20053;-76
2022/07/10 05:38:07;;;;;;;3.83;1.48;;;15.40;1.00;;;;;;4973922;28;20031;-76
2022/07/10 05:40:33;;;;;;;3.50;1.35;;;15.40;1.00;;;;;;4973912;28;20463;-76
2022/07/10 05:42:59;;;;;;;4.20;1.00;;;15.40;1.00;;;;;;4973932;28;20030;-76
2022/07/10 05:45:25;;;;;;;4.72;1.40;;;15.40;1.00;;;;;;4973933;28;20027;-76
2022/07/10 05:47:50;;;;;;;1.25;0.60;;;15.50;1.00;;;;;;4973706;28;20023;-76
2022/07/10 05:50:16;;;;;;;4.35;1.17;;;15.40;1.00;;;;;;4973663;28;20019;-76
2022/07/10 05:52:42;;;;;;;3.42;0.93;;;15.40;39.80;;;;;;4960166;28;20056;-76
2022/07/10 05:55:08;;;;;;;2.70;1.20;;;15.20;68.90;;;;;;4973864;28;20039;-75
2022/07/10 05:57:34;;;;;;;7.72;1.50;;;15.00;83.70;;;;;;4973699;28;20031;-76
2022/07/10 06:00:00;;;;;;;1.42;1.00;;;14.80;99.90;;;;;;4973384;28;20038;-76
2022/07/10 06:02:26;;;;;;;3.75;1.10;;;14.70;99.90;;;;;;4973236;28;20035;-76
2022/07/10 06:04:52;;;;;;;3.50;0.98;;;14.80;99.90;;;;;;4973049;28;20023;-77
2022/07/10 06:07:18;;;;;;;4.55;1.33;;;14.80;99.90;;;;;;4973274;28;20404;-77
2022/07/10 06:09:44;;;;;;;4.50;1.48;;;14.80;99.90;;;;;;4973314;28;20168;-76
2022/07/10 06:12:09;;;;;;;6.65;1.48;;;14.90;99.90;;;;;;4973362;28;20113;-77
2022/07/10 06:14:35;;;;;;;4.63;1.48;;;15.00;97.30;;;;;;4973111;28;20042;-77
2022/07/10 06:17:01;;;;;;;0.60;0.40;;;15.00;71.10;;;;;;4973254;28;20050;-77
2022/07/10 06:19:27;;;;;;;2.88;0.63;;;15.10;2.50;;;;;;4972864;28;20488;-77
2022/07/10 06:22:30;;;;;;;5.03;0.90;;;15.30;1.00;;;;;;4973282;28;20154;-77
2022/07/10 06:24:39;;;;;;;2.50;1.23;;;15.40;1.00;;;;;;4972339;28;20114;-77
2022/07/10 06:27:05;;;;;;;4.38;1.08;;;15.60;1.00;;;;;;4972547;28;20181;-77
2022/07/10 06:29:31;;;;;;;3.78;0.98;;;15.60;1.00;;;;;;4972443;28;20023;-77
2022/07/10 06:31:56;;;;;;;2.40;1.20;;;15.50;1.00;;;;;;4972886;28;20037;-77
2022/07/10 06:34:22;;;;;;;2.83;1.25;;;15.40;1.00;;;;;;4972823;28;20395;-77
2022/07/10 06:36:48;;;;;;;2.38;1.02;;;15.50;1.00;;;;;;4973321;28;20344;-77
2022/07/10 06:39:14;;;;;;;2.88;0.98;;;15.60;1.00;;;;;;4973022;28;20040;-77
2022/07/10 06:41:40;;;;;;;2.97;1.15;;;15.80;1.00;;;;;;4973057;28;20035;-77
2022/07/10 06:44:05;;;;;;;3.03;1.15;;;15.90;1.00;;;;;;4972639;28;20027;-77
2022/07/10 06:46:32;;;;;;;3.55;1.17;;;16.10;1.00;;;;;;4972586;28;20031;-77
2022/07/10 06:48:58;;;;;;;3.42;1.13;;;16.60;1.00;;;;;;4972904;28;20265;-77
2022/07/10 06:51:24;;;;;;;1.02;0.85;;;17.00;1.00;;;;;;4972957;28;20019;-77
2022/07/10 06:53:51;;;;;;;1.65;0.98;;;18.10;99.90;;;;;;4972637;28;20344;-77
2022/07/10 06:56:17;;;;;;;2.25;1.00;;;17.90;99.90;;;;;;4972477;28;20027;-77
2022/07/10 06:58:42;;;;;;;5.05;1.30;;;17.30;99.90;;;;;;4972728;28;20027;-77
2022/07/10 07:01:08;;;;;;;2.67;1.10;;;17.30;99.90;;;;;;4972522;28;20502;-77
2022/07/10 07:03:34;;;;;;;4.30;0.93;;;17.40;99.90;;;;;;4972294;28;20081;-77
2022/07/10 07:06:00;;;;;;;2.03;1.00;;;18.40;99.90;;;;;;4972421;28;20027;-77
2022/07/10 07:08:25;;;;;;;2.85;0.73;;;20.20;99.90;;;;;;4972698;28;20114;-77
2022/07/10 07:10:51;;;;;;;3.08;0.75;;;21.20;99.90;;;;;;4972370;28;20027;-77
2022/07/10 07:13:16;;;;;;;3.35;1.10;;;23.60;99.90;;;;;;4972732;28;20041;-77
2022/07/10 07:15:46;;;;;;;4.95;0.95;;;20.90;99.90;;;;;;4972875;28;20023;-77
2022/07/10 07:18:15;;;;;;;1.60;0.85;;;19.40;99.90;;;;;;4975981;28;20034;-77
2022/07/10 07:23:26;;;;;;;2.92;0.80;;;18.50;99.90;;;;;;4957539;29;20090;-77
2022/07/10 07:25:52;;;;;;;8.82;1.60;;;18.10;99.90;;;;;;4956977;28;20028;-76
2022/07/10 07:28:19;;;;;;;4.78;1.30;;;17.80;99.90;;;;;;4957157;28;20079;-76
2022/07/10 07:30:46;;;;;;;2.90;0.90;;;17.60;99.90;;;;;;4956936;28;20098;-77
2022/07/10 07:33:12;;;;;;;2.22;0.90;;;17.40;99.90;;;;;;4956885;29;20034;-77
2022/07/10 07:35:38;;;;;;;3.03;0.90;;;17.30;99.90;;;;;;4956547;28;20055;-76
2022/07/10 07:38:05;;;;;;;3.60;1.15;;;17.20;99.90;;;;;;4957219;28;20028;-77
2022/07/10 07:40:31;;;;;;;3.25;1.02;;;17.10;99.90;;;;;;4972230;28;20045;-77
2022/07/10 07:42:56;;;;;;;3.20;1.20;;;17.30;99.90;;;;;;4975688;28;20486;-77
2022/07/10 07:45:23;;;;;;;3.08;1.30;;;17.70;99.90;;;;;;4975867;28;20566;-77
2022/07/10 07:47:51;;;;;;;2.00;0.98;;;18.10;99.90;;;;;;4975675;28;20364;-77
2022/07/10 07:50:22;;;;;;;2.45;1.00;;;18.50;99.90;;;;;;4956532;28;20082;-77
2022/07/10 07:52:48;;;;;;;2.28;0.93;;;18.60;99.90;;;;;;4956551;28;20027;-77
2022/07/10 07:55:15;;;;;;;2.80;1.45;;;18.80;99.90;;;;;;4956639;29;20039;-74
2022/07/10 07:57:41;;;;;;;3.88;1.02;;;18.90;99.90;;;;;;4956670;28;20031;-75
2022/07/10 08:00:08;;;;;;;3.63;0.90;;;18.60;99.90;;;;;;4963466;28;20551;-75
2022/07/10 08:02:35;;;;;;;1.15;0.73;;;18.40;99.90;;;;;;4974001;28;20488;-75
2022/07/10 08:05:01;;;;;;;6.13;1.10;;;18.10;99.90;;;;;;4975724;28;20034;-76
2022/07/10 08:07:44;;;;;;;2.90;1.10;;;17.80;99.90;;;;;;4975002;28;20038;-75
2022/07/10 08:10:15;;;;;;;2.63;0.90;;;17.90;99.90;;;;;;4975520;28;20038;-77
2022/07/10 08:12:42;;;;;;;2.30;0.82;;;17.70;99.90;;;;;;4975572;28;20073;-76
2022/07/10 08:15:09;;;;;;;1.95;1.02;;;17.70;99.90;;;;;;4975477;28;20023;-75
2022/07/10 08:17:35;;;;;;;2.65;0.98;;;17.90;99.90;;;;;;4975210;28;20030;-75
2022/07/10 08:20:02;;;;;;;3.20;1.70;;;18.10;99.90;;;;;;4975572;28;20094;-77
2022/07/10 08:22:28;;;;;;;2.75;1.10;;;18.00;99.90;;;;;;4975387;28;20026;-76
2022/07/10 08:24:53;;;;;;;4.75;1.50;;;17.90;99.90;;;;;;4975579;28;20050;-77
2022/07/10 08:27:19;;;;;;;3.97;1.17;;;18.20;99.90;;;;;;4975184;28;20030;-77
2022/07/10 08:29:44;;;;;;;5.32;1.40;;;18.30;99.90;;;;;;4975049;28;20019;-77
2022/07/10 08:32:10;;;;;;;3.50;0.98;;;18.40;99.90;;;;;;4975345;28;20022;-77
2022/07/10 08:34:36;;;;;;;2.78;1.40;;;18.30;99.90;;;;;;4975004;28;20078;-77
2022/07/10 08:37:03;;;;;;;4.45;1.75;;;18.10;99.90;;;;;;4975360;28;20039;-77
2022/07/10 08:39:28;;;;;;;6.57;1.90;;;18.00;99.90;;;;;;4975355;28;20038;-77
2022/07/10 08:41:54;;;;;;;3.63;1.70;;;17.90;99.90;;;;;;4974820;28;20027;-76
2022/07/10 08:44:21;;;;;;;3.80;1.60;;;17.70;99.90;;;;;;4975123;28;20019;-77
2022/07/10 08:46:47;;;;;;;2.60;1.30;;;17.70;99.90;;;;;;4975368;28;20027;-78
2022/07/10 08:49:15;;;;;;;5.47;1.50;;;17.70;99.90;;;;;;4974975;28;20026;-77
2022/07/10 08:51:56;;;;;;;7.35;1.42;;;18.20;99.90;;;;;;4975001;28;20027;-77
2022/07/10 08:54:22;;;;;;;3.90;1.42;;;18.50;99.90;;;;;;4955812;28;20114;-77
2022/07/10 08:56:49;;;;;;;3.38;1.50;;;19.30;99.90;;;;;;4955731;29;20510;-77
2022/07/10 08:59:16;;;;;;;1.73;0.95;;;19.70;99.90;;;;;;4955724;28;20050;-77
2022/07/10 09:01:42;;;;;;;5.35;1.17;;;20.40;99.90;;;;;;4955882;29;20023;-77
2022/07/10 09:04:19;;;;;;;2.90;1.08;;;21.20;99.90;;;;;;4955360;28;20027;-77
2022/07/10 09:06:44;;;;;;;4.40;0.90;;;21.50;99.90;;;;;;4955615;28;20046;-77
2022/07/10 09:09:11;;;;;;;3.08;1.17;;;21.70;99.90;;;;;;4967403;28;20027;-76
2022/07/10 09:11:40;;;;;;;3.55;0.90;;;21.80;99.90;;;;;;4974451;28;20046;-77
2022/07/10 09:14:08;;;;;;;4.45;0.98;;;21.60;99.90;;;;;;4973246;28;20068;-76
2022/07/10 09:16:36;;;;;;;2.92;1.05;;;21.20;99.90;;;;;;4974274;28;20019;-76
2022/07/10 09:19:26;;;;;;;3.10;1.10;;;21.20;99.90;;;;;;4974493;28;20019;-76
2022/07/10 09:22:05;;;;;;;1.70;1.10;;;21.60;99.90;;;;;;4974286;28;20106;-77
2022/07/10 09:24:45;;;;;;;3.45;1.02;;;21.10;99.90;;;;;;4974516;28;20073;-76
2022/07/10 09:27:11;;;;;;;;;;;20.90;99.90;;;;;;4961957;28;20034;-76
2022/07/10 09:29:50;;;;;;;1.10;0.90;;;20.50;99.90;;;;;;4974123;28;19913;-76
2022/07/10 09:32:19;;;;;;;2.35;0.88;;;20.50;99.90;;;;;;4974503;28;20029;-77
2022/07/10 09:36:04;;;;;;;2.90;1.10;;;20.50;99.90;;;;;;4973941;28;20082;-77
2022/07/10 09:37:39;;;;;;;4.90;1.15;;;20.60;99.90;;;;;;4962733;28;20252;-77
2022/07/10 09:40:07;;;;;;;2.95;0.93;;;20.80;99.90;;;;;;4973400;28;20023;-77
2022/07/10 09:42:33;;;;;;;4.88;1.13;;;20.80;99.90;;;;;;4974088;28;20030;-77
2022/07/10 09:45:12;;;;;;;4.65;1.00;;;20.50;99.90;;;;;;4974210;28;20019;-77
2022/07/10 09:47:43;;;;;;;4.07;0.80;;;20.20;99.90;;;;;;4974199;28;20081;-77
2022/07/10 09:50:19;;;;;;;3.38;0.90;;;20.00;99.90;;;;;;4973692;28;20521;-77
2022/07/10 09:52:46;;;;;;;2.60;0.90;;;19.50;99.90;;;;;;4974157;28;20035;-77
2022/07/10 09:55:14;;;;;;;2.17;1.02;;;19.20;99.90;;;;;;4973678;28;20034;-77
2022/07/10 09:57:43;;;;;;;4.50;1.15;;;19.40;99.90;;;;;;4973841;28;20043;-76
2022/07/10 10:00:10;;;;;;;3.20;0.82;;;19.00;99.90;;;;;;4974105;28;20042;-77
2022/07/10 10:02:38;;;;;;;2.35;0.80;;;18.90;99.90;;;;;;4973797;28;20451;-76
2022/07/10 10:05:04;;;;;;;2.80;1.05;;;18.70;99.90;;;;;;4972704;28;20073;-77
2022/07/10 10:07:32;;;;;;;4.40;0.93;;;18.90;99.90;;;;;;4973892;28;20066;-77
2022/07/10 10:10:01;;;;;;;5.97;1.38;;;19.40;99.90;;;;;;4973567;28;20026;-77
2022/07/10 10:12:39;;;;;;;4.00;1.00;;;19.80;99.90;;;;;;4973332;28;20462;-76
2022/07/10 10:15:05;;;;;;;2.78;0.90;;;20.30;99.90;;;;;;4973570;28;20034;-76
2022/07/10 10:17:35;;;;;;;2.88;1.08;;;20.30;99.90;;;;;;4973017;28;20027;-76
2022/07/10 10:22:48;;;;;;;2.15;0.80;;;20.30;99.90;;;;;;4974926;28;20033;-77
2022/07/10 10:25:19;;;;;;;1.65;0.80;;;20.20;99.90;;;;;;4973465;28;20469;-76
2022/07/10 10:27:45;;;;;;;1.33;0.45;;;20.10;99.90;;;;;;4973498;28;20041;-76
2022/07/10 10:30:11;;;;;;;3.30;1.00;;;20.00;99.90;;;;;;4972926;28;20030;-76
2022/07/10 10:32:42;;;;;;;2.45;0.80;;;20.10;99.90;;;;;;4973192;28;20153;-76
2022/07/10 10:35:11;;;;;;;3.33;0.90;;;20.40;99.90;;;;;;4972758;28;20054;-76
2022/07/10 10:37:44;;;;;;;3.30;0.80;;;20.90;99.90;;;;;;4973137;28;20114;-76
2022/07/10 10:40:29;;;;;;;2.38;0.93;;;21.70;99.90;;;;;;4973371;28;20071;-74
2022/07/10 10:42:55;;;;;;;3.30;1.05;;;21.70;99.90;;;;;;4972864;28;20023;-76
2022/07/10 10:45:29;;;;;;;2.80;1.10;;;21.80;99.90;;;;;;4972837;28;20034;-76
2022/07/10 10:48:02;;;;;;;4.50;1.25;;;22.50;99.90;;;;;;4973204;28;20080;-77
2022/07/10 10:50:47;;;;;;;1.88;0.50;;;22.40;99.90;;;;;;4972809;28;20027;-76
2022/07/10 10:53:20;;;;;;;2.92;0.90;;;22.50;99.90;;;;;;4972705;28;20023;-77
2022/07/10 10:56:07;;;;;;;1.95;1.15;;;22.40;99.90;;;;;;4973468;28;20038;-77
2022/07/10 10:58:38;;;;;;;1.75;0.90;;;22.40;99.90;;;;;;4953982;29;20160;-76
2022/07/10 11:01:04;;;;;;;1.48;0.73;;;22.40;99.90;;;;;;4953743;28;20031;-77
2022/07/10 11:03:30;;;;;;;3.20;0.88;;;22.50;99.90;;;;;;4954094;28;20054;-78
2022/07/10 11:05:56;;;;;;;2.25;0.93;;;22.40;99.90;;;;;;4953891;29;20054;-79
2022/07/10 11:08:51;;;;;;;4.20;1.27;;;22.80;99.90;;;;;;4971820;28;20478;-78
2022/07/10 11:11:31;;;;;;;3.90;1.00;;;22.90;99.90;;;;;;4968366;28;20078;-78
2022/07/10 11:13:58;;;;;;;3.28;0.77;;;22.70;99.90;;;;;;4973516;28;20095;-78
2022/07/10 11:16:27;;;;;;;2.90;0.88;;;22.80;99.90;;;;;;4973559;28;20023;-79
2022/07/10 11:18:53;;;;;;;3.20;0.85;;;22.60;99.90;;;;;;4973323;28;20026;-79
2022/07/10 11:21:25;;;;;;;4.57;1.02;;;22.60;99.90;;;;;;4973738;28;20081;-77
2022/07/10 11:23:59;;;;;;;1.98;0.80;;;22.40;99.90;;;;;;4972612;28;20023;-77
2022/07/10 11:26:57;;;;;;;2.17;0.90;;;22.30;99.90;;;;;;4972440;28;20483;-76
2022/07/10 11:29:23;;;;;;;1.02;0.80;;;22.70;99.90;;;;;;4972618;28;20383;-76
2022/07/10 11:31:55;;;;;;;2.13;0.80;;;22.80;99.90;;;;;;4972421;28;20489;-76
2022/07/10 11:34:34;;;;;;;2.17;0.80;;;22.90;99.90;;;;;;4972200;28;20059;-77
2022/07/10 11:37:00;;;;;;;4.00;0.85;;;22.70;99.90;;;;;;4972845;28;20023;-77
2022/07/10 11:39:26;;;;;;;3.20;1.27;;;22.50;99.90;;;;;;4972575;28;20031;-77
2022/07/10 11:41:52;;;;;;;1.13;0.50;;;22.20;99.90;;;;;;4972567;28;20497;-77
2022/07/10 11:44:20;;;;;;;2.15;0.60;;;22.50;99.90;;;;;;4972753;28;20025;-76
2022/07/10 11:46:49;;;;;;;2.80;0.50;;;22.30;99.90;;;;;;4972654;28;20364;-77
2022/07/10 11:49:15;;;;;;;3.10;1.15;;;21.90;99.90;;;;;;4973112;28;20019;-77
2022/07/10 11:51:42;;;;;;;3.10;0.80;;;22.10;99.90;;;;;;4972302;28;20033;-76
2022/07/10 11:54:15;;;;;;;3.22;1.00;;;22.00;99.90;;;;;;4972511;28;20019;-76
2022/07/10 11:56:46;;;;;;;2.55;0.93;;;22.00;99.90;;;;;;4953694;28;20038;-76
2022/07/10 11:59:13;;;;;;;2.10;0.90;;;21.80;99.90;;;;;;4952963;29;20031;-76
2022/07/10 12:01:53;;;;;;;1.95;0.85;;;22.10;99.90;;;;;;4953108;29;20051;-76
2022/07/10 12:04:26;;;;;;;3.03;0.90;;;22.50;99.90;;;;;;4955438;28;20041;-77
2022/07/10 12:06:53;;;;;;;1.35;0.70;;;23.10;99.90;;;;;;4956531;28;20110;-75
2022/07/10 12:09:23;;;;;;;2.42;0.88;;;23.90;99.90;;;;;;4956304;29;20086;-76
2022/07/10 12:11:58;;;;;;;1.73;0.55;;;25.00;99.90;;;;;;4956311;29;20082;-76
2022/07/10 12:14:25;;;;;;;2.95;0.90;;;25.00;99.90;;;;;;4956472;29;20019;-76
2022/07/10 12:16:53;;;;;;;2.67;0.73;;;24.80;99.90;;;;;;4956545;28;20035;-76
2022/07/10 12:19:30;;;;;;;1.77;0.80;;;24.40;99.90;;;;;;4956339;28;20055;-76
2022/07/10 12:21:58;;;;;;;1.98;0.82;;;24.80;99.90;;;;;;4956651;29;20348;-75
2022/07/10 12:24:24;;;;;;;1.08;0.60;;;24.90;99.90;;;;;;4956512;28;20429;-75
2022/07/10 12:26:52;;;;;;;2.00;0.90;;;25.60;99.90;;;;;;4958384;28;20023;-75
2022/07/10 12:29:22;;;;;;;2.10;0.65;;;25.70;99.90;;;;;;4975621;28;20151;-75
2022/07/10 12:31:50;;;;;;;1.55;0.80;;;26.00;99.90;;;;;;4975242;28;20019;-75
2022/07/10 12:34:17;;;;;;;2.70;0.80;;;26.70;99.90;;;;;;4974874;28;20133;-76
2022/07/10 12:36:49;;;;;;;2.80;0.73;;;26.30;99.90;;;;;;4975372;28;20027;-74
2022/07/10 12:39:17;;;;;;;1.48;0.77;;;26.60;99.90;;;;;;4955934;29;20050;-75
2022/07/10 12:42:04;;;;;;;1.67;0.77;;;26.50;99.90;;;;;;4965038;28;20098;-75
2022/07/10 12:44:31;;;;;;;2.03;0.80;;;26.60;99.90;;;;;;4974749;28;20506;-75
2022/07/10 12:47:02;;;;;;;2.47;0.90;;;26.60;99.90;;;;;;4974659;28;20027;-75
2022/07/10 12:49:27;;;;;;;2.55;0.73;;;26.90;99.90;;;;;;4974721;28;20532;-75
2022/07/10 12:51:53;;;;;;;2.58;0.90;;;26.50;99.90;;;;;;4974882;28;20022;-75
2022/07/10 12:54:37;;;;;;;2.63;0.85;;;27.00;99.90;;;;;;4974786;28;20081;-75
2022/07/10 12:57:05;;;;;;;3.20;0.88;;;27.20;99.90;;;;;;4974540;28;20097;-76
2022/07/10 12:59:36;;;;;;;1.15;0.70;;;27.10;99.90;;;;;;4974580;28;20027;-75
2022/07/10 13:02:19;;;;;;;2.90;1.00;;;26.60;99.90;;;;;;4974615;28;20019;-75